createdAt,value
2022-12-29T00:02:26.143Z,96018.53
2022-12-29T00:04:53.697Z,96019.44
2022-12-29T00:07:21.252Z,96020.91
2022-12-29T00:09:48.782Z,96013.28
2022-12-29T00:12:16.417Z,96027.63
2022-12-29T00:15:02.754Z,96019.78
2022-12-29T00:17:30.243Z,96021.78
2022-12-29T00:20:15.412Z,96006.50
2022-12-29T00:23:00.571Z,95998.38
2022-12-29T00:25:45.684Z,95998.91
2022-12-29T00:28:31.075Z,96003.31
2022-12-29T00:31:20.042Z,95992.53
2022-12-29T00:34:05.138Z,95990.81
2022-12-29T00:36:34.799Z,95990.13
2022-12-29T00:39:25.402Z,95986.53
2022-12-29T00:42:10.653Z,95992.09
2022-12-29T00:44:38.137Z,95988.13
2022-12-29T00:47:07.036Z,95992.06
2022-12-29T00:49:34.099Z,95982.50
2022-12-29T00:52:04.214Z,95985.47
2022-12-29T00:54:34.111Z,95978.28
2022-12-29T00:57:02.210Z,95962.28
2022-12-29T00:59:29.773Z,95982.00
2022-12-29T01:01:58.481Z,95969.31
2022-12-29T01:04:28.198Z,95970.72
2022-12-29T01:06:55.947Z,95972.00
2022-12-29T01:09:41.332Z,95971.31
2022-12-29T01:12:10.194Z,95980.00
2022-12-29T01:14:38.991Z,95980.97
2022-12-29T01:17:07.192Z,95980.06
2022-12-29T01:19:36.229Z,95970.78
2022-12-29T01:22:03.745Z,95975.84
2022-12-29T01:24:31.266Z,95974.34
2022-12-29T01:26:58.751Z,95975.78
2022-12-29T01:29:26.435Z,95969.31
2022-12-29T01:31:53.946Z,95964.94
2022-12-29T01:34:21.578Z,95972.28
2022-12-29T01:36:50.394Z,95964.56
2022-12-29T01:39:17.908Z,95978.47
2022-12-29T01:41:45.421Z,95963.06
2022-12-29T01:44:48.966Z,95960.69
2022-12-29T01:47:20.731Z,95953.81
2022-12-29T01:49:48.246Z,95957.50
2022-12-29T01:52:17.123Z,95960.94
2022-12-29T01:54:48.762Z,95961.97
2022-12-29T01:57:20.118Z,95957.63
2022-12-29T01:59:52.715Z,95956.00
2022-12-29T02:02:20.253Z,95958.53
2022-12-29T02:04:48.946Z,95952.19
2022-12-29T02:07:20.640Z,95942.56
2022-12-29T02:09:50.533Z,95942.38
2022-12-29T02:12:19.939Z,95936.63
2022-12-29T02:14:48.747Z,95929.44
2022-12-29T02:17:36.810Z,95935.16
2022-12-29T02:20:39.759Z,95924.81
2022-12-29T02:23:41.152Z,95935.03
2022-12-29T02:26:35.606Z,95933.28
2022-12-29T02:29:48.477Z,95943.41
2022-12-29T02:32:23.549Z,95939.47
2022-12-29T02:35:01.208Z,95946.63
2022-12-29T02:37:36.736Z,95935.41
2022-12-29T02:40:12.202Z,95925.19
2022-12-29T02:42:48.831Z,95911.69
2022-12-29T02:45:23.883Z,95906.22
2022-12-29T02:47:59.753Z,95900.59
2022-12-29T02:50:33.985Z,95907.91
2022-12-29T02:53:03.733Z,95913.31
2022-12-29T02:55:30.255Z,95912.69
2022-12-29T02:58:17.447Z,95911.09
2022-12-29T03:00:57.567Z,95909.69
2022-12-29T03:03:40.905Z,95919.84
2022-12-29T03:06:32.581Z,95912.50
2022-12-29T03:09:19.071Z,95910.25
2022-12-29T03:12:11.075Z,95911.66
2022-12-29T03:15:03.838Z,95902.59
2022-12-29T03:17:37.023Z,95907.38
2022-12-29T03:20:10.442Z,95907.13
2022-12-29T03:22:43.878Z,95902.41
2022-12-29T03:25:17.644Z,95893.41
2022-12-29T03:27:47.870Z,95891.53
2022-12-29T03:30:15.849Z,95889.72
2022-12-29T03:32:47.159Z,95885.75
2022-12-29T03:35:19.033Z,95883.53
2022-12-29T03:37:53.515Z,95887.31
2022-12-29T03:40:23.835Z,95879.63
2022-12-29T03:42:52.040Z,95879.38
2022-12-29T03:45:19.552Z,95883.94
2022-12-29T03:47:47.129Z,95871.16
2022-12-29T03:50:16.254Z,95869.38
2022-12-29T03:52:45.969Z,95875.38
2022-12-29T03:55:13.787Z,95868.06
2022-12-29T03:57:41.299Z,95869.91
2022-12-29T04:00:10.076Z,95869.78
2022-12-29T04:02:37.672Z,95872.13
2022-12-29T04:05:06.219Z,95868.56
2022-12-29T04:07:35.122Z,95862.31
2022-12-29T04:10:02.633Z,95865.38
2022-12-29T04:12:30.149Z,95863.72
2022-12-29T04:14:57.670Z,95874.63
2022-12-29T04:17:25.166Z,95876.13
2022-12-29T04:20:13.197Z,95881.59
2022-12-29T04:22:42.009Z,95869.91
2022-12-29T04:25:10.337Z,95872.25
2022-12-29T04:27:37.905Z,95878.47
2022-12-29T04:30:06.381Z,95886.41
2022-12-29T04:32:33.875Z,95885.59
2022-12-29T04:35:01.955Z,95880.94
2022-12-29T04:37:29.447Z,95880.19
2022-12-29T04:39:58.287Z,95874.84
2022-12-29T04:42:25.784Z,95881.09
2022-12-29T04:44:53.261Z,95876.75
2022-12-29T04:47:20.741Z,95885.84
2022-12-29T04:49:48.220Z,95878.31
2022-12-29T04:52:15.790Z,95878.84
2022-12-29T04:54:43.289Z,95881.97
2022-12-29T04:57:12.119Z,95880.84
2022-12-29T04:59:39.627Z,95881.78
2022-12-29T05:02:07.248Z,95891.59
2022-12-29T05:04:35.109Z,95881.72
2022-12-29T05:07:02.583Z,95882.94
2022-12-29T05:09:30.875Z,95887.16
2022-12-29T05:11:58.394Z,95879.78
2022-12-29T05:14:27.294Z,95879.25
2022-12-29T05:16:54.798Z,95878.41
2022-12-29T05:19:22.552Z,95879.66
2022-12-29T05:21:50.051Z,95885.59
2022-12-29T05:24:17.859Z,95883.25
2022-12-29T05:26:46.143Z,95883.84
2022-12-29T05:29:13.630Z,95881.81
2022-12-29T05:31:42.559Z,95875.19
2022-12-29T05:34:12.436Z,95876.69
2022-12-29T05:36:40.006Z,95884.44
2022-12-29T05:39:08.588Z,95881.22
2022-12-29T05:41:36.703Z,95878.69
2022-12-29T05:44:04.526Z,95876.16
2022-12-29T05:46:32.390Z,95885.75
2022-12-29T05:49:01.217Z,95880.50
2022-12-29T05:51:28.695Z,95875.53
2022-12-29T05:53:56.288Z,95874.47
2022-12-29T05:56:24.415Z,95874.13
2022-12-29T05:58:52.164Z,95875.38
2022-12-29T06:01:19.809Z,95881.19
2022-12-29T06:03:48.472Z,95886.97
2022-12-29T06:06:17.772Z,95875.16
2022-12-29T06:08:45.367Z,95881.44
2022-12-29T06:11:12.895Z,95882.00
2022-12-29T06:13:40.391Z,95880.34
2022-12-29T06:16:08.786Z,95885.66
2022-12-29T06:18:36.324Z,95883.13
2022-12-29T06:21:04.838Z,95888.81
2022-12-29T06:23:33.695Z,95878.19
2022-12-29T06:26:01.191Z,95878.97
2022-12-29T06:28:28.815Z,95871.84
2022-12-29T06:30:56.298Z,95878.19
2022-12-29T06:33:24.037Z,95883.38
2022-12-29T06:35:51.520Z,95877.81
2022-12-29T06:38:19.029Z,95892.75
2022-12-29T06:40:47.905Z,95891.84
2022-12-29T06:43:15.414Z,95893.00
2022-12-29T06:45:42.941Z,95891.28
2022-12-29T06:48:10.458Z,95895.22
2022-12-29T06:50:37.989Z,95901.03
2022-12-29T06:53:05.626Z,95899.47
2022-12-29T06:55:33.257Z,95901.09
2022-12-29T06:58:02.933Z,95896.72
2022-12-29T07:00:30.401Z,95905.47
2022-12-29T07:02:58.985Z,95912.91
2022-12-29T07:05:28.457Z,95897.19
2022-12-29T07:07:55.998Z,95899.34
2022-12-29T07:10:23.980Z,95901.75
2022-12-29T07:12:51.803Z,95900.69
2022-12-29T07:15:20.622Z,95910.34
2022-12-29T07:17:50.379Z,95909.13
2022-12-29T07:20:23.214Z,95903.41
2022-12-29T07:22:53.923Z,95908.59
2022-12-29T07:25:21.436Z,95900.94
2022-12-29T07:27:49.516Z,95889.53
2022-12-29T07:30:17.544Z,95901.75
2022-12-29T07:32:46.406Z,95895.03
2022-12-29T07:35:13.920Z,95883.00
2022-12-29T07:37:41.394Z,95894.22
2022-12-29T07:40:11.014Z,95885.41
2022-12-29T07:42:38.532Z,95887.28
2022-12-29T07:45:07.368Z,95887.81
2022-12-29T07:47:34.880Z,95894.78
2022-12-29T07:50:03.809Z,95893.44
2022-12-29T07:52:31.293Z,95890.50
2022-12-29T07:54:58.761Z,95881.03
2022-12-29T07:57:31.543Z,95891.66
2022-12-29T07:59:59.710Z,95891.28
2022-12-29T08:02:27.538Z,95900.19
2022-12-29T08:04:55.384Z,95898.88
2022-12-29T08:07:24.336Z,95915.69
2022-12-29T08:09:51.851Z,95909.75
2022-12-29T08:12:19.454Z,95910.44
2022-12-29T08:14:46.955Z,95915.09
2022-12-29T08:17:14.518Z,95920.03
2022-12-29T08:19:43.553Z,95918.78
2022-12-29T08:22:11.145Z,95922.81
2022-12-29T08:24:39.982Z,95903.50
2022-12-29T08:27:16.229Z,95916.72
2022-12-29T08:29:47.361Z,95922.66
2022-12-29T08:32:14.939Z,95929.84
2022-12-29T08:34:42.439Z,95930.97
2022-12-29T08:37:10.014Z,95923.38
2022-12-29T08:39:37.511Z,95924.03
2022-12-29T08:42:07.268Z,95923.66
2022-12-29T08:44:34.775Z,95923.50
2022-12-29T08:47:02.339Z,95926.97
2022-12-29T08:49:29.868Z,95923.09
2022-12-29T08:51:57.425Z,95927.09
2022-12-29T08:54:25.008Z,95929.72
2022-12-29T08:56:52.603Z,95932.38
2022-12-29T08:59:21.415Z,95924.31
2022-12-29T09:01:49.026Z,95931.53
2022-12-29T09:04:18.016Z,95925.00
2022-12-29T09:06:46.433Z,95937.22
2022-12-29T09:09:14.301Z,95929.06
2022-12-29T09:11:42.759Z,95932.66
2022-12-29T09:14:10.287Z,95932.84
2022-12-29T09:16:39.374Z,95919.44
2022-12-29T09:19:07.058Z,95926.06
2022-12-29T09:21:34.620Z,95916.28
2022-12-29T09:24:02.164Z,95917.81
2022-12-29T09:26:29.670Z,95912.66
2022-12-29T09:28:57.764Z,95915.06
2022-12-29T09:31:26.037Z,95914.16
2022-12-29T09:33:55.044Z,95916.63
2022-12-29T09:36:22.533Z,95917.69
2022-12-29T09:38:50.029Z,95922.69
2022-12-29T09:41:22.652Z,95926.81
2022-12-29T09:44:05.117Z,95922.81
2022-12-29T09:46:37.245Z,95914.06
2022-12-29T09:49:21.572Z,95907.06
2022-12-29T09:51:52.812Z,95907.13
2022-12-29T09:54:28.686Z,95910.38
2022-12-29T09:56:57.935Z,95901.03
2022-12-29T09:59:35.829Z,95896.59
2022-12-29T10:02:16.234Z,95890.66
2022-12-29T10:04:45.528Z,95886.16
2022-12-29T10:07:29.658Z,95887.31
2022-12-29T10:10:04.959Z,95893.84
2022-12-29T10:12:49.010Z,95885.28
2022-12-29T10:15:28.403Z,95886.31
2022-12-29T10:18:03.764Z,95889.81
2022-12-29T10:20:38.186Z,95890.06
2022-12-29T10:23:28.717Z,95880.84
2022-12-29T10:25:58.434Z,95868.50
2022-12-29T10:28:34.550Z,95868.03
2022-12-29T10:31:08.968Z,95856.09
2022-12-29T10:33:39.581Z,95849.59
2022-12-29T10:36:17.317Z,95854.56
2022-12-29T10:38:52.256Z,95854.44
2022-12-29T10:41:25.800Z,95846.94
2022-12-29T10:43:56.190Z,95849.38
2022-12-29T10:46:26.620Z,95848.28
2022-12-29T10:48:54.086Z,95845.22
2022-12-29T10:51:27.061Z,95840.97
2022-12-29T10:53:59.756Z,95844.88
2022-12-29T10:56:36.149Z,95840.78
2022-12-29T10:59:13.231Z,95838.19
2022-12-29T11:01:52.241Z,95837.50
2022-12-29T11:04:36.083Z,95835.38
2022-12-29T11:07:10.540Z,95835.16
2022-12-29T11:09:43.401Z,95841.41
2022-12-29T11:12:25.938Z,95836.56
2022-12-29T11:15:18.798Z,95828.47
2022-12-29T11:17:48.808Z,95839.53
2022-12-29T11:20:35.843Z,95831.59
2022-12-29T11:23:06.223Z,95831.13
2022-12-29T11:25:34.366Z,95822.19
2022-12-29T11:28:05.835Z,95816.88
2022-12-29T11:30:34.262Z,95826.75
2022-12-29T11:33:05.628Z,95826.50
2022-12-29T11:35:37.339Z,95812.91
2022-12-29T11:38:07.038Z,95821.16
2022-12-29T11:40:40.644Z,95813.03
2022-12-29T11:43:08.498Z,95802.72
2022-12-29T11:45:38.101Z,95798.13
2022-12-29T11:48:09.970Z,95797.81
2022-12-29T11:50:41.367Z,95803.09
2022-12-29T11:53:20.845Z,95787.28
2022-12-29T11:55:55.191Z,95802.72
2022-12-29T11:58:22.778Z,95801.38
2022-12-29T12:00:51.461Z,95802.66
2022-12-29T12:03:24.533Z,95799.50
2022-12-29T12:05:55.887Z,95788.41
2022-12-29T12:08:36.206Z,95796.34
2022-12-29T12:11:10.465Z,95789.94
2022-12-29T12:13:44.860Z,95795.97
2022-12-29T12:16:17.609Z,95779.69
2022-12-29T12:18:50.799Z,95782.31
2022-12-29T12:21:26.261Z,95770.38
2022-12-29T12:24:19.027Z,95778.59
2022-12-29T12:27:00.241Z,95789.16
2022-12-29T12:29:36.602Z,95782.38
2022-12-29T12:32:13.583Z,95773.31
2022-12-29T12:34:44.919Z,95775.97
2022-12-29T12:37:48.215Z,95767.38
2022-12-29T12:40:36.681Z,95763.81
2022-12-29T12:43:22.403Z,95771.19
2022-12-29T12:46:06.766Z,95769.63
2022-12-29T12:48:56.840Z,95770.28
2022-12-29T12:51:34.979Z,95765.16
2022-12-29T12:54:23.503Z,95764.13
2022-12-29T12:57:03.597Z,95754.38
2022-12-29T12:59:51.188Z,95759.88
2022-12-29T13:02:36.680Z,95759.34
2022-12-29T13:05:28.800Z,95761.16
2022-12-29T13:08:13.834Z,95753.56
2022-12-29T13:10:49.832Z,95758.81
2022-12-29T13:13:36.886Z,95758.66
2022-12-29T13:16:14.535Z,95753.13
2022-12-29T13:18:50.585Z,95763.13
2022-12-29T13:21:28.258Z,95763.34
2022-12-29T13:24:04.030Z,95758.09
2022-12-29T13:26:37.525Z,95758.75
2022-12-29T13:29:17.802Z,95754.16
2022-12-29T13:31:52.757Z,95751.19
2022-12-29T13:34:33.066Z,95748.97
2022-12-29T13:37:03.418Z,95748.47
2022-12-29T13:39:36.027Z,95751.09
2022-12-29T13:42:13.991Z,95746.28
2022-12-29T13:44:46.374Z,95750.28
2022-12-29T13:47:22.413Z,95746.97
2022-12-29T13:49:50.809Z,95750.00
2022-12-29T13:52:26.725Z,95761.56
2022-12-29T13:55:04.085Z,95764.22
2022-12-29T13:57:43.489Z,95761.22
2022-12-29T14:00:17.030Z,95770.00
2022-12-29T14:02:59.533Z,95757.53
2022-12-29T14:05:32.044Z,95764.88
2022-12-29T14:08:01.592Z,95763.38
2022-12-29T14:10:34.386Z,95765.06
2022-12-29T14:13:07.421Z,95758.53
2022-12-29T14:15:42.001Z,95766.69
2022-12-29T14:18:19.360Z,95764.66
2022-12-29T14:20:53.751Z,95764.13
2022-12-29T14:23:30.952Z,95762.50
2022-12-29T14:26:01.624Z,95765.69
2022-12-29T14:28:31.554Z,95771.13
2022-12-29T14:31:00.486Z,95777.28
2022-12-29T14:33:31.007Z,95783.03
2022-12-29T14:35:59.368Z,95786.97
2022-12-29T14:38:30.782Z,95797.38
2022-12-29T14:41:20.888Z,95794.97
2022-12-29T14:44:00.531Z,95803.22
2022-12-29T14:47:00.863Z,95801.50
2022-12-29T14:49:32.871Z,95803.84
2022-12-29T14:52:14.772Z,95794.84
2022-12-29T14:54:50.619Z,95790.63
2022-12-29T14:57:26.675Z,95800.22
2022-12-29T15:00:00.022Z,95806.50
2022-12-29T15:02:35.576Z,95799.19
2022-12-29T15:05:04.761Z,95797.47
2022-12-29T15:07:34.405Z,95805.03
2022-12-29T15:10:08.277Z,95808.66
2022-12-29T15:12:40.481Z,95806.91
2022-12-29T15:15:24.517Z,95807.09
2022-12-29T15:17:52.237Z,95802.31
2022-12-29T15:20:26.553Z,95815.66
2022-12-29T15:22:58.107Z,95811.16
2022-12-29T15:25:27.057Z,95810.34
2022-12-29T15:27:57.857Z,95815.06
2022-12-29T15:30:26.680Z,95820.84
2022-12-29T15:32:54.295Z,95816.72
2022-12-29T15:35:29.088Z,95808.78
2022-12-29T15:37:57.456Z,95810.41
2022-12-29T15:40:27.277Z,95814.72
2022-12-29T15:43:18.986Z,95813.25
2022-12-29T15:45:47.902Z,95810.78
2022-12-29T15:48:19.549Z,95821.47
2022-12-29T15:50:47.835Z,95821.34
2022-12-29T15:53:25.583Z,95816.47
2022-12-29T15:55:55.950Z,95811.63
2022-12-29T15:58:29.793Z,95816.28
2022-12-29T16:01:00.832Z,95811.56
2022-12-29T16:03:31.892Z,95812.28
2022-12-29T16:06:09.905Z,95804.84
2022-12-29T16:08:40.878Z,95816.16
2022-12-29T16:11:23.864Z,95807.47
2022-12-29T16:13:54.196Z,95813.78
2022-12-29T16:16:27.582Z,95818.25
2022-12-29T16:18:58.131Z,95819.66
2022-12-29T16:21:31.647Z,95820.38
2022-12-29T16:24:03.668Z,95808.59
2022-12-29T16:26:31.425Z,95826.06
2022-12-29T16:29:01.525Z,95828.97
2022-12-29T16:31:36.864Z,95822.56
2022-12-29T16:34:15.512Z,95822.84
2022-12-29T16:36:55.135Z,95817.91
2022-12-29T16:39:40.325Z,95817.91
2022-12-29T16:42:37.105Z,95811.25
2022-12-29T16:45:52.653Z,95813.28
2022-12-29T16:48:23.545Z,95815.66
2022-12-29T16:50:51.505Z,95804.78
2022-12-29T16:53:22.158Z,95812.34
2022-12-29T16:55:51.102Z,95817.06
2022-12-29T16:58:21.002Z,95816.03
2022-12-29T17:00:48.709Z,95819.91
2022-12-29T17:03:17.026Z,95821.66
2022-12-29T17:05:46.711Z,95824.94
2022-12-29T17:08:23.672Z,95823.34
2022-12-29T17:11:09.924Z,95819.59
2022-12-29T17:13:38.394Z,95825.78
2022-12-29T17:16:08.263Z,95829.22
2022-12-29T17:18:36.185Z,95827.03
2022-12-29T17:21:05.147Z,95832.84
2022-12-29T17:23:34.687Z,95831.84
2022-12-29T17:26:03.031Z,95832.84
2022-12-29T17:28:33.362Z,95829.34
2022-12-29T17:31:03.236Z,95825.63
2022-12-29T17:33:34.901Z,95831.84
2022-12-29T17:36:02.374Z,95827.88
2022-12-29T17:38:33.048Z,95824.78
2022-12-29T17:41:00.828Z,95828.47
2022-12-29T17:43:34.791Z,95823.81
2022-12-29T17:46:04.592Z,95825.34
2022-12-29T17:48:32.132Z,95829.69
2022-12-29T17:50:59.689Z,95825.88
2022-12-29T17:53:31.344Z,95832.72
2022-12-29T17:55:58.964Z,95829.94
2022-12-29T17:58:28.122Z,95831.38
2022-12-29T18:00:58.187Z,95826.47
2022-12-29T18:03:28.588Z,95826.22
2022-12-29T18:05:56.505Z,95814.47
2022-12-29T18:08:23.985Z,95820.47
2022-12-29T18:10:54.754Z,95810.50
2022-12-29T18:13:25.825Z,95818.38
2022-12-29T18:15:54.837Z,95816.72
2022-12-29T18:18:24.156Z,95816.38
2022-12-29T18:20:53.810Z,95807.88
2022-12-29T18:23:23.669Z,95814.59
2022-12-29T18:25:55.322Z,95806.91
2022-12-29T18:28:23.549Z,95812.91
2022-12-29T18:30:51.095Z,95819.22
2022-12-29T18:33:23.315Z,95829.81
2022-12-29T18:35:54.112Z,95835.78
2022-12-29T18:38:21.614Z,95841.75
2022-12-29T18:40:50.255Z,95834.81
2022-12-29T18:43:19.955Z,95844.44
2022-12-29T18:45:48.092Z,95845.94
2022-12-29T18:48:16.803Z,95851.91
2022-12-29T18:50:44.720Z,95852.28
2022-12-29T18:53:17.377Z,95859.09
2022-12-29T18:55:44.992Z,95867.66
2022-12-29T18:58:12.740Z,95882.81
2022-12-29T19:00:41.891Z,95896.53
2022-12-29T19:03:13.134Z,95902.13
2022-12-29T19:05:43.018Z,95902.78
2022-12-29T19:08:11.742Z,95909.69
2022-12-29T19:10:40.757Z,95898.78
2022-12-29T19:13:15.384Z,95899.47
2022-12-29T19:15:46.363Z,95904.13
2022-12-29T19:21:07.398Z,95901.88
2022-12-29T19:23:34.934Z,95894.69
2022-12-29T19:26:02.438Z,95896.13
2022-12-29T19:28:30.253Z,95884.22
2022-12-29T19:31:02.225Z,95889.53
2022-12-29T19:33:30.043Z,95889.81
2022-12-29T19:36:00.657Z,95888.16
2022-12-29T19:38:28.237Z,95895.84
2022-12-29T19:40:55.840Z,95908.28
2022-12-29T19:43:23.361Z,95898.09
2022-12-29T19:45:51.331Z,95895.00
2022-12-29T19:48:22.051Z,95898.91
2022-12-29T19:50:49.844Z,95897.41
2022-12-29T19:53:17.364Z,95895.31
2022-12-29T19:55:45.578Z,95892.56
2022-12-29T19:58:13.611Z,95894.75
2022-12-29T20:00:41.559Z,95893.19
2022-12-29T20:03:09.681Z,95891.94
2022-12-29T20:05:39.276Z,95896.56
2022-12-29T20:08:07.301Z,95901.88
2022-12-29T20:10:35.067Z,95891.63
2022-12-29T20:13:04.336Z,95897.41
2022-12-29T20:15:31.873Z,95898.22
2022-12-29T20:18:12.930Z,95896.91
2022-12-29T20:20:43.293Z,95899.16
2022-12-29T20:23:11.400Z,95896.56
2022-12-29T20:25:47.471Z,95904.31
2022-12-29T20:28:16.640Z,95912.06
2022-12-29T20:30:44.782Z,95921.25
2022-12-29T20:33:12.496Z,95907.50
2022-12-29T20:35:40.008Z,95908.66
2022-12-29T20:38:09.032Z,95907.91
2022-12-29T20:40:42.391Z,95905.78
2022-12-29T20:43:11.865Z,95906.56
2022-12-29T20:45:40.127Z,95905.22
2022-12-29T20:48:07.690Z,95892.78
2022-12-29T20:50:35.186Z,95906.31
2022-12-29T20:53:02.654Z,95903.72
2022-12-29T20:55:31.554Z,95897.28
2022-12-29T20:58:23.591Z,95898.25
2022-12-29T21:00:46.594Z,95894.28
2022-12-29T21:03:14.181Z,95902.97
2022-12-29T21:05:41.743Z,95907.53
2022-12-29T21:08:11.253Z,95902.88
2022-12-29T21:10:40.199Z,95900.91
2022-12-29T21:13:07.700Z,95891.28
2022-12-29T21:15:35.205Z,95909.19
2022-12-29T21:18:02.695Z,95899.03
2022-12-29T21:20:33.017Z,95899.06
2022-12-29T21:23:01.501Z,95894.00
2022-12-29T21:25:36.729Z,95898.38
2022-12-29T21:28:06.324Z,95893.44
2022-12-29T21:30:34.270Z,95906.81
2022-12-29T21:33:02.231Z,95905.88
2022-12-29T21:35:30.264Z,95890.88
2022-12-29T21:37:57.895Z,95903.78
2022-12-29T21:40:25.419Z,95911.91
2022-12-29T21:42:52.944Z,95920.41
2022-12-29T21:45:26.697Z,95915.69
2022-12-29T21:48:12.790Z,95914.16
2022-12-29T21:51:02.118Z,95902.19
2022-12-29T21:53:43.810Z,95901.53
2022-12-29T21:56:13.542Z,95896.25
2022-12-29T21:59:00.490Z,95902.31
2022-12-29T22:01:48.299Z,95902.88
2022-12-29T22:04:35.456Z,95901.22
2022-12-29T22:07:21.689Z,95912.22
2022-12-29T22:10:07.063Z,95905.63
2022-12-29T22:12:53.099Z,95912.22
2022-12-29T22:15:21.101Z,95917.41
2022-12-29T22:17:51.712Z,95924.84
2022-12-29T22:20:19.907Z,95921.88
2022-12-29T22:22:47.909Z,95932.47
2022-12-29T22:25:16.002Z,95933.75
2022-12-29T22:27:43.941Z,95933.41
2022-12-29T22:30:12.051Z,95938.19
2022-12-29T22:32:39.652Z,95941.38
2022-12-29T22:35:10.023Z,95953.75
2022-12-29T22:37:39.048Z,95946.44
2022-12-29T22:40:09.369Z,95945.59
2022-12-29T22:42:36.915Z,95948.13
2022-12-29T22:45:04.886Z,95963.00
2022-12-29T22:47:32.363Z,95966.59
2022-12-29T22:50:00.344Z,95967.78
2022-12-29T22:52:29.274Z,95967.56
2022-12-29T22:55:01.673Z,95968.69
2022-12-29T22:57:33.207Z,95967.06
2022-12-29T23:00:00.695Z,95968.19
2022-12-29T23:02:28.723Z,95983.81
2022-12-29T23:05:03.633Z,95992.22
2022-12-29T23:07:33.714Z,96005.00
2022-12-29T23:10:01.234Z,96012.81
2022-12-29T23:12:30.333Z,96015.69
2022-12-29T23:14:57.835Z,96027.16
2022-12-29T23:17:25.780Z,96017.88
2022-12-29T23:19:53.560Z,96030.56
2022-12-29T23:22:22.925Z,96033.41
2022-12-29T23:24:51.870Z,96040.50
2022-12-29T23:27:19.367Z,96044.56
2022-12-29T23:29:46.838Z,96048.91
2022-12-29T23:32:14.369Z,96053.63
2022-12-29T23:34:41.913Z,96048.06
2022-12-29T23:37:09.400Z,96061.88
2022-12-29T23:39:36.915Z,96055.59
2022-12-29T23:42:05.904Z,96065.50
2022-12-29T23:44:33.692Z,96073.19
2022-12-29T23:47:01.225Z,96079.88
2022-12-29T23:49:28.727Z,96079.63
2022-12-29T23:51:56.197Z,96105.72
2022-12-29T23:54:25.289Z,96098.84
2022-12-29T23:56:52.806Z,96105.25
2022-12-29T23:59:21.631Z,96111.78
